Time;durP1;ratioP1;P1;durP2;ratioP2;P2;SDS_P1;SDS_P2;PMS_P1;PMS_P2;Temp;Humidity;BMP_temperature;BMP_pressure;BME280_temperature;BME280_humidity;BME280_pressure;Samples;Min_cycle;Max_cycle;Signal;HPM_P1;HPM_P2
2021/06/27 00:00:25;;;;;;;;;;;22.70;99.90;;;;;;5089273;28;20083;-58
2021/06/27 00:02:50;;;;;;;;;;;22.70;99.90;;;;;;5074997;28;20111;-58
2021/06/27 00:05:18;;;;;;;;;;;22.60;99.90;;;;;;5068823;28;20080;-58
2021/06/27 00:07:44;;;;;;;;;;;22.70;99.90;;;;;;5068596;28;19982;-58
2021/06/27 00:10:14;;;;;;;;;;;22.60;99.90;;;;;;5069294;28;20027;-58
2021/06/27 00:12:41;;;;;;;;;;;22.50;99.90;;;;;;5068917;28;19989;-58
2021/06/27 00:15:09;;;;;;;;;;;22.40;99.90;;;;;;5069504;28;20696;-58
2021/06/27 00:17:34;;;;;;;;;;;22.40;99.90;;;;;;5068757;28;20642;-58
2021/06/27 00:20:00;;;;;;;;;;;22.40;99.90;;;;;;5068140;28;19992;-58
2021/06/27 00:22:26;;;;;;;;;;;22.50;99.90;;;;;;5068012;28;19989;-58
2021/06/27 00:24:51;;;;;;;;;;;22.30;99.90;;;;;;5068449;28;20650;-58
2021/06/27 00:27:19;;;;;;;;;;;22.40;99.90;;;;;;5066442;28;20039;-58
2021/06/27 00:29:45;;;;;;;;;;;22.40;99.90;;;;;;5067531;28;20032;-58
2021/06/27 00:32:10;;;;;;;;;;;22.30;99.90;;;;;;5068580;28;20021;-58
2021/06/27 00:34:36;;;;;;;;;;;22.30;99.90;;;;;;5073715;28;20097;-58
2021/06/27 00:37:02;;;;;;;;;;;22.30;99.90;;;;;;5088381;28;19985;-58
2021/06/27 00:39:27;;;;;;;;;;;22.20;99.90;;;;;;5088502;28;19985;-58
2021/06/27 00:41:53;;;;;;;;;;;22.10;99.90;;;;;;5077266;28;19992;-58
2021/06/27 00:44:21;;;;;;;;;;;22.10;99.90;;;;;;5071617;28;20039;-58
2021/06/27 00:46:51;;;;;;;;;;;22.10;99.90;;;;;;5087782;28;20079;-58
2021/06/27 00:49:17;;;;;;;;;;;22.00;99.90;;;;;;5087005;28;20012;-58
2021/06/27 00:51:42;;;;;;;;;;;22.00;99.90;;;;;;5073926;28;20016;-58
2021/06/27 00:54:08;;;;;;;;;;;22.00;99.90;;;;;;5067231;28;20030;-58
2021/06/27 00:56:34;;;;;;;;;;;21.90;99.90;;;;;;5066104;28;20085;-58
2021/06/27 00:59:00;;;;;;;;;;;21.80;99.90;;;;;;5066244;28;20016;-58
2021/06/27 01:01:25;;;;;;;;;;;21.90;99.90;;;;;;5074041;28;20043;-58
2021/06/27 01:03:52;;;;;;;;;;;21.90;99.90;;;;;;5086275;28;20028;-58
2021/06/27 01:06:17;;;;;;;;;;;21.90;99.90;;;;;;5085280;28;20525;-58
2021/06/27 01:08:43;;;;;;;;;;;21.90;99.90;;;;;;5079868;28;20068;-58
2021/06/27 01:11:08;;;;;;;;;;;22.00;99.90;;;;;;5067182;28;20005;-58
2021/06/27 01:13:35;;;;;;;;;;;21.90;99.90;;;;;;5065688;28;20024;-58
2021/06/27 01:16:01;;;;;;;;;;;21.80;99.90;;;;;;5065167;28;19993;-58
2021/06/27 01:18:28;;;;;;;;;;;21.80;99.90;;;;;;5067189;28;20012;-58
2021/06/27 01:20:53;;;;;;;;;;;21.80;99.90;;;;;;5083517;28;20387;-58
2021/06/27 01:23:20;;;;;;;;;;;21.70;99.90;;;;;;5086576;28;20009;-58
2021/06/27 01:25:47;;;;;;;;;;;21.70;99.90;;;;;;5084653;28;19988;-58
2021/06/27 01:28:13;;;;;;;;;;;21.60;99.90;;;;;;5081338;28;19993;-58
2021/06/27 01:30:40;;;;;;;;;;;21.60;99.90;;;;;;5086294;28;20024;-58
2021/06/27 01:33:09;;;;;;;;;;;21.50;99.90;;;;;;5086134;28;19981;-58
2021/06/27 01:35:36;;;;;;;;;;;21.40;99.90;;;;;;5085663;28;20042;-58
2021/06/27 01:38:02;;;;;;;;;;;21.50;99.90;;;;;;5083875;28;20087;-58
2021/06/27 01:40:28;;;;;;;;;;;21.40;99.90;;;;;;5085589;28;19989;-58
2021/06/27 01:43:12;;;;;;;;;;;21.40;99.90;;;;;;5085588;28;19992;-58
2021/06/27 01:45:39;;;;;;;;;;;21.40;99.90;;;;;;5085102;28;20011;-58
2021/06/27 01:48:06;;;;;;;;;;;21.30;99.90;;;;;;5081309;28;20008;-58
2021/06/27 01:50:32;;;;;;;;;;;21.20;99.90;;;;;;5063874;28;20449;-58
2021/06/27 01:52:59;;;;;;;;;;;21.20;99.90;;;;;;5064890;28;20081;-58
2021/06/27 01:55:25;;;;;;;;;;;21.10;99.90;;;;;;5076759;28;19992;-58
2021/06/27 01:57:51;;;;;;;;;;;21.20;99.90;;;;;;5085412;28;19985;-58
2021/06/27 02:00:17;;;;;;;;;;;21.20;99.90;;;;;;5067340;28;19989;-58
2021/06/27 02:02:44;;;;;;;;;;;21.10;99.90;;;;;;5065218;28;19990;-58
2021/06/27 02:05:11;;;;;;;;;;;21.10;99.90;;;;;;5065835;28;20068;-58
2021/06/27 02:07:37;;;;;;;;;;;21.10;99.90;;;;;;5065889;28;20032;-58
2021/06/27 02:10:06;;;;;;;;;;;21.20;99.90;;;;;;5064760;28;20386;-58
2021/06/27 02:12:31;;;;;;;;;;;21.10;99.90;;;;;;5064121;28;20125;-58
2021/06/27 02:14:58;;;;;;;;;;;21.10;99.90;;;;;;5065194;28;20474;-58
2021/06/27 02:17:23;;;;;;;;;;;20.90;99.90;;;;;;5065558;28;20028;-57
2021/06/27 02:19:52;;;;;;;;;;;21.10;99.90;;;;;;5073479;28;20073;-58
2021/06/27 02:22:17;;;;;;;;;;;20.90;99.90;;;;;;5085446;28;19989;-58
2021/06/27 02:24:43;;;;;;;;;;;21.00;99.90;;;;;;5085006;28;20030;-58
2021/06/27 02:27:08;;;;;;;;;;;21.00;99.90;;;;;;5085113;28;20003;-58
2021/06/27 02:29:35;;;;;;;;;;;21.10;99.90;;;;;;5083669;28;20476;-58
2021/06/27 02:32:01;;;;;;;;;;;21.10;99.90;;;;;;5085279;28;20478;-58
2021/06/27 02:34:26;;;;;;;;;;;21.00;99.90;;;;;;5085348;28;20008;-58
2021/06/27 02:36:52;;;;;;;;;;;21.00;99.90;;;;;;5085152;28;19989;-58
2021/06/27 02:39:17;;;;;;;;;;;21.00;99.90;;;;;;5083633;28;19984;-58
2021/06/27 02:41:43;;;;;;;;;;;21.00;99.90;;;;;;5084550;28;20458;-58
2021/06/27 02:44:09;;;;;;;;;;;21.00;99.90;;;;;;5086006;28;20088;-58
2021/06/27 02:46:34;;;;;;;;;;;21.00;99.90;;;;;;5085273;28;20016;-57
2021/06/27 02:49:01;;;;;;;;;;;21.00;99.90;;;;;;5084722;28;19993;-58
2021/06/27 02:51:27;;;;;;;;;;;21.10;99.90;;;;;;5082582;28;20054;-58
2021/06/27 02:53:54;;;;;;;;;;;21.00;99.90;;;;;;5088262;28;20491;-57
2021/06/27 02:56:19;;;;;;;;;;;21.10;99.90;;;;;;5089026;28;20374;-58
2021/06/27 02:58:47;;;;;;;;;;;21.10;99.90;;;;;;5088679;28;19993;-58
2021/06/27 03:01:13;;;;;;;;;;;21.00;99.90;;;;;;5086429;28;19992;-57
2021/06/27 03:03:40;;;;;;;;;;;21.10;99.90;;;;;;5087499;28;19985;-58
2021/06/27 03:06:07;;;;;;;;;;;21.20;99.90;;;;;;5070646;28;20039;-58
2021/06/27 03:08:34;;;;;;;;;;;21.20;99.90;;;;;;5068462;28;20518;-58
2021/06/27 03:11:00;;;;;;;;;;;21.20;99.90;;;;;;5081440;28;20009;-58
2021/06/27 03:13:26;;;;;;;;;;;21.10;99.90;;;;;;5088653;28;20424;-58
2021/06/27 03:15:52;;;;;;;;;;;21.20;99.90;;;;;;5069573;28;20011;-58
2021/06/27 03:18:17;;;;;;;;;;;21.30;99.90;;;;;;5068013;28;19989;-57
2021/06/27 03:20:43;;;;;;;;;;;21.30;99.90;;;;;;5067636;28;20091;-58
2021/06/27 03:23:09;;;;;;;;;;;21.20;99.90;;;;;;5068934;28;20018;-58
2021/06/27 03:25:35;;;;;;;;;;;21.10;99.90;;;;;;5068059;28;20015;-58
2021/06/27 03:28:01;;;;;;;;;;;21.10;99.90;;;;;;5079506;28;20083;-58
2021/06/27 03:30:27;;;;;;;;;;;21.20;99.90;;;;;;5079302;28;20013;-58
2021/06/27 03:32:52;;;;;;;;;;;21.10;99.90;;;;;;5074635;28;20015;-58
2021/06/27 03:35:19;;;;;;;;;;;21.00;99.90;;;;;;5067949;28;20098;-58
2021/06/27 03:40:41;;;;;;;;;;;21.10;99.90;;;;;;5092449;28;19996;-58
2021/06/27 03:43:07;;;;;;;;;;;21.20;99.90;;;;;;5068890;28;19989;-58
2021/06/27 03:45:33;;;;;;;;;;;21.20;99.90;;;;;;5067769;28;20016;-58
2021/06/27 03:47:59;;;;;;;;;;;21.30;99.90;;;;;;5067552;28;19997;-58
2021/06/27 03:50:25;;;;;;;;;;;21.30;99.90;;;;;;5076712;28;20015;-58
2021/06/27 03:52:52;;;;;;;;;;;21.30;99.90;;;;;;5087465;28;20034;-58
2021/06/27 03:55:19;;;;;;;;;;;21.40;99.90;;;;;;5086674;28;20000;-58
2021/06/27 03:57:45;;;;;;;;;;;21.40;99.90;;;;;;5087804;28;19996;-58
2021/06/27 04:00:11;;;;;;;;;;;21.50;99.90;;;;;;5086855;28;20032;-58
2021/06/27 04:02:38;;;;;;;;;;;21.50;99.90;;;;;;5088087;28;20061;-58
2021/06/27 04:05:04;;;;;;;;;;;21.50;99.90;;;;;;5087295;28;20351;-58
2021/06/27 04:07:30;;;;;;;;;;;21.50;99.90;;;;;;5087495;28;20007;-58
2021/06/27 04:09:56;;;;;;;;;;;21.50;99.90;;;;;;5085088;28;20118;-58
2021/06/27 04:12:22;;;;;;;;;;;21.50;99.90;;;;;;5087358;28;19985;-58
2021/06/27 04:14:47;;;;;;;;;;;21.50;99.90;;;;;;5087696;28;19981;-58
2021/06/27 04:17:17;;;;;;;;;;;21.50;99.90;;;;;;5085745;28;19989;-58
2021/06/27 04:19:44;;;;;;;;;;;21.50;99.90;;;;;;5087177;28;20034;-58
2021/06/27 04:22:09;;;;;;;;;;;21.40;99.90;;;;;;5087912;28;19984;-58
2021/06/27 04:24:35;;;;;;;;;;;21.40;99.90;;;;;;5087539;28;20408;-58
2021/06/27 04:27:00;;;;;;;;;;;21.40;99.90;;;;;;5084226;28;20382;-58
2021/06/27 04:29:27;;;;;;;;;;;21.30;99.90;;;;;;5083935;28;19989;-58
2021/06/27 04:31:53;;;;;;;;;;;21.30;99.90;;;;;;5086972;28;20012;-58
2021/06/27 04:34:20;;;;;;;;;;;21.20;99.90;;;;;;5086880;28;20003;-58
2021/06/27 04:36:46;;;;;;;;;;;21.20;99.90;;;;;;5087028;28;20016;-58
2021/06/27 04:39:14;;;;;;;;;;;21.40;99.90;;;;;;5085427;28;19989;-58
2021/06/27 04:41:42;;;;;;;;;;;21.30;99.90;;;;;;5072205;28;20000;-58
2021/06/27 04:44:08;;;;;;;;;;;21.30;99.90;;;;;;5087555;28;19985;-58
2021/06/27 04:46:34;;;;;;;;;;;21.30;99.90;;;;;;5086744;28;20458;-58
2021/06/27 04:48:59;;;;;;;;;;;21.30;99.90;;;;;;5086522;28;20091;-58
2021/06/27 04:51:25;;;;;;;;;;;21.20;99.90;;;;;;5084859;28;20119;-58
2021/06/27 04:53:51;;;;;;;;;;;21.20;99.90;;;;;;5086183;28;20462;-58
2021/06/27 04:56:16;;;;;;;;;;;21.30;99.90;;;;;;5086997;28;19985;-58
2021/06/27 04:58:42;;;;;;;;;;;21.40;99.90;;;;;;5086336;28;19989;-58
2021/06/27 05:01:07;;;;;;;;;;;21.30;99.90;;;;;;5085431;28;19992;-58
2021/06/27 05:03:33;;;;;;;;;;;21.30;99.90;;;;;;5086251;28;19985;-58
2021/06/27 05:05:58;;;;;;;;;;;21.30;99.90;;;;;;5086643;28;20339;-58
2021/06/27 05:08:25;;;;;;;;;;;21.00;99.90;;;;;;5082296;28;19992;-58
2021/06/27 05:10:51;;;;;;;;;;;20.90;99.90;;;;;;5080454;28;20459;-58
2021/06/27 05:13:17;;;;;;;;;;;21.10;99.90;;;;;;5086265;28;20027;-58
2021/06/27 05:15:42;;;;;;;;;;;21.20;99.90;;;;;;5085327;28;20091;-58
2021/06/27 05:18:08;;;;;;;;;;;21.30;99.90;;;;;;5086491;28;20071;-58
2021/06/27 05:20:34;;;;;;;;;;;21.30;99.90;;;;;;5085848;28;20450;-58
2021/06/27 05:22:59;;;;;;;;;;;21.00;99.90;;;;;;5086379;28;19992;-58
2021/06/27 05:25:25;;;;;;;;;;;21.10;99.90;;;;;;5086588;28;19992;-58
2021/06/27 05:27:50;;;;;;;;;;;20.90;99.90;;;;;;5086249;28;20025;-58
2021/06/27 05:30:16;;;;;;;;;;;21.10;99.90;;;;;;5084115;28;20011;-58
2021/06/27 05:32:42;;;;;;;;;;;21.20;99.90;;;;;;5073413;28;19989;-58
2021/06/27 05:35:08;;;;;;;;;;;20.90;99.90;;;;;;5086346;28;19996;-58
2021/06/27 05:37:34;;;;;;;;;;;21.10;99.90;;;;;;5082277;28;19981;-58
2021/06/27 05:40:02;;;;;;;;;;;21.10;99.90;;;;;;5067229;28;20403;-58
2021/06/27 05:42:28;;;;;;;;;;;21.10;99.90;;;;;;5066594;28;20020;-58
2021/06/27 05:44:53;;;;;;;;;;;21.20;99.90;;;;;;5065724;28;20082;-58
2021/06/27 05:47:19;;;;;;;;;;;21.20;99.90;;;;;;5065485;28;19986;-58
2021/06/27 05:49:44;;;;;;;;;;;21.30;99.90;;;;;;5070726;28;19981;-58
2021/06/27 05:52:10;;;;;;;;;;;21.50;99.90;;;;;;5078873;28;19985;-58
2021/06/27 05:54:35;;;;;;;;;;;21.50;99.90;;;;;;5068110;28;20034;-58
2021/06/27 05:57:01;;;;;;;;;;;21.40;99.90;;;;;;5068125;28;20016;-58
2021/06/27 05:59:26;;;;;;;;;;;21.40;99.90;;;;;;5077253;28;20008;-58
2021/06/27 06:01:53;;;;;;;;;;;21.40;99.90;;;;;;5079058;28;19985;-58
2021/06/27 06:04:18;;;;;;;;;;;21.30;99.90;;;;;;5081129;28;19985;-58
2021/06/27 06:06:44;;;;;;;;;;;21.40;99.90;;;;;;5086972;28;20093;-58
2021/06/27 06:09:10;;;;;;;;;;;21.40;99.90;;;;;;5085682;28;20092;-58
2021/06/27 06:11:36;;;;;;;;;;;21.50;99.90;;;;;;5086696;28;20057;-57
2021/06/27 06:14:02;;;;;;;;;;;21.60;99.90;;;;;;5086457;28;20390;-56
2021/06/27 06:16:27;;;;;;;;;;;21.70;99.90;;;;;;5086077;28;19981;-56
2021/06/27 06:18:54;;;;;;;;;;;21.70;99.90;;;;;;5086290;28;20475;-56
2021/06/27 06:21:19;;;;;;;;;;;21.70;99.90;;;;;;5086407;28;19981;-56
2021/06/27 06:23:45;;;;;;;;;;;21.80;99.90;;;;;;5086584;28;20125;-56
2021/06/27 06:26:11;;;;;;;;;;;21.80;99.90;;;;;;5083042;28;20036;-56
2021/06/27 06:28:39;;;;;;;;;;;21.90;99.90;;;;;;5080996;28;19988;-56
2021/06/27 06:31:05;;;;;;;;;;;22.00;99.90;;;;;;5070050;28;20481;-56
2021/06/27 06:33:31;;;;;;;;;;;22.00;99.90;;;;;;5085036;28;20503;-56
2021/06/27 06:35:57;;;;;;;;;;;22.10;99.90;;;;;;5090848;28;19984;-57
2021/06/27 06:38:22;;;;;;;;;;;22.10;99.90;;;;;;5085949;28;19989;-57
2021/06/27 06:40:48;;;;;;;;;;;22.20;99.90;;;;;;5078553;28;19992;-57
2021/06/27 06:43:13;;;;;;;;;;;22.30;99.90;;;;;;5089983;28;20392;-56
2021/06/27 06:45:39;;;;;;;;;;;22.30;99.90;;;;;;5091189;28;19996;-56
2021/06/27 06:48:05;;;;;;;;;;;22.30;99.90;;;;;;5090509;28;19992;-57
2021/06/27 06:50:30;;;;;;;;;;;22.30;99.90;;;;;;5084550;28;20061;-57
2021/06/27 06:52:56;;;;;;;;;;;22.30;99.90;;;;;;5069924;28;19992;-56
2021/06/27 06:55:22;;;;;;;;;;;22.40;99.90;;;;;;5075139;28;20080;-56
2021/06/27 06:57:49;;;;;;;;;;;22.50;99.90;;;;;;5077634;28;19985;-57
2021/06/27 07:00:15;;;;;;;;;;;22.50;99.90;;;;;;5084503;28;20031;-57
2021/06/27 07:02:41;;;;;;;;;;;22.60;99.90;;;;;;5082232;28;20037;-57
2021/06/27 07:05:07;;;;;;;;;;;22.60;99.90;;;;;;5090284;28;20533;-57
2021/06/27 07:07:33;;;;;;;;;;;22.50;99.90;;;;;;5090119;28;20526;-57
2021/06/27 07:09:58;;;;;;;;;;;22.30;99.90;;;;;;5076970;28;20095;-57
2021/06/27 07:12:24;;;;;;;;;;;22.20;99.90;;;;;;5089857;28;19981;-57
2021/06/27 07:14:50;;;;;;;;;;;22.20;99.90;;;;;;5080920;28;20040;-56
2021/06/27 07:17:15;;;;;;;;;;;22.30;99.90;;;;;;5075396;28;19985;-58
2021/06/27 07:19:42;;;;;;;;;;;22.50;99.90;;;;;;5081229;28;19985;-57
2021/06/27 07:22:07;;;;;;;;;;;22.70;99.90;;;;;;5082534;28;19992;-56
2021/06/27 07:24:34;;;;;;;;;;;22.60;99.90;;;;;;5075825;28;19992;-55
2021/06/27 07:26:59;;;;;;;;;;;22.70;99.90;;;;;;5073268;28;19993;-54
2021/06/27 07:29:25;;;;;;;;;;;22.60;99.90;;;;;;5072073;28;19993;-55
2021/06/27 07:31:53;;;;;;;;;;;22.80;99.90;;;;;;5071619;28;20112;-57
2021/06/27 07:34:19;;;;;;;;;;;22.80;99.90;;;;;;5085254;28;19989;-56
2021/06/27 07:42:51;;;;;;;;;;;22.90;99.90;;;;;;5081663;28;20678;-57
2021/06/27 07:45:16;;;;;;;;;;;23.10;99.90;;;;;;5076131;28;19989;-58
2021/06/27 07:47:42;;;;;;;;;;;23.00;99.90;;;;;;5071738;28;20071;-56
2021/06/27 07:50:08;;;;;;;;;;;23.10;99.90;;;;;;5086792;28;20009;-57
2021/06/27 07:52:36;;;;;;;;;;;23.00;99.90;;;;;;5086776;28;19996;-56
2021/06/27 07:55:03;;;;;;;;;;;23.00;99.90;;;;;;5090173;28;20053;-55
2021/06/27 07:57:28;;;;;;;;;;;23.20;99.90;;;;;;5088988;28;20007;-57
2021/06/27 07:59:54;;;;;;;;;;;23.30;99.90;;;;;;5090146;28;19985;-57
2021/06/27 08:02:19;;;;;;;;;;;23.30;99.90;;;;;;5073620;28;20008;-57
2021/06/27 08:04:45;;;;;;;;;;;23.20;99.90;;;;;;5080542;28;19989;-56
2021/06/27 08:07:11;;;;;;;;;;;23.20;99.90;;;;;;5070733;28;19993;-57
2021/06/27 08:09:37;;;;;;;;;;;23.20;99.90;;;;;;5073012;28;19993;-57
2021/06/27 08:12:03;;;;;;;;;;;23.40;99.90;;;;;;5077335;28;20016;-57
2021/06/27 08:14:28;;;;;;;;;;;23.60;99.90;;;;;;5080308;28;19985;-57
2021/06/27 08:16:55;;;;;;;;;;;23.40;99.90;;;;;;5074013;28;19984;-57
2021/06/27 08:19:20;;;;;;;;;;;23.50;99.90;;;;;;5082301;28;19985;-57
2021/06/27 08:21:46;;;;;;;;;;;23.50;99.90;;;;;;5074746;28;19996;-57
2021/06/27 08:24:11;;;;;;;;;;;23.50;99.90;;;;;;5079170;28;20367;-57
2021/06/27 08:26:37;;;;;;;;;;;23.70;99.90;;;;;;5089689;28;20032;-57
2021/06/27 08:29:02;;;;;;;;;;;23.80;99.90;;;;;;5085885;28;20462;-57
2021/06/27 08:31:28;;;;;;;;;;;23.90;99.90;;;;;;5079092;28;20100;-57
2021/06/27 08:33:54;;;;;;;;;;;23.90;99.90;;;;;;5082742;28;19985;-57
2021/06/27 08:36:20;;;;;;;;;;;24.00;99.90;;;;;;5080716;28;19991;-57
2021/06/27 08:38:45;;;;;;;;;;;24.00;99.90;;;;;;5089555;28;19981;-57
2021/06/27 08:41:13;;;;;;;;;;;24.00;99.90;;;;;;5087292;28;20087;-58
2021/06/27 08:43:40;;;;;;;;;;;24.00;99.90;;;;;;5082872;28;20044;-57
2021/06/27 08:46:07;;;;;;;;;;;24.10;99.90;;;;;;5089842;28;19988;-57
2021/06/27 08:48:37;;;;;;;;;;;24.20;99.90;;;;;;5076049;28;20005;-57
2021/06/27 08:51:04;;;;;;;;;;;24.20;99.90;;;;;;5068620;28;20008;-57
2021/06/27 08:53:34;;;;;;;;;;;24.30;99.90;;;;;;5067671;28;19986;-57
2021/06/27 08:56:10;;;;;;;;;;;24.30;99.90;;;;;;5068741;28;20036;-58
2021/06/27 08:58:38;;;;;;;;;;;24.20;99.90;;;;;;5077696;28;19991;-57
2021/06/27 09:01:05;;;;;;;;;;;24.20;99.90;;;;;;5072808;28;19996;-57
2021/06/27 09:03:31;;;;;;;;;;;24.20;99.90;;;;;;5109268;28;19994;-57
2021/06/27 09:05:57;;;;;;;;;;;24.20;99.90;;;;;;5109737;28;20062;-57
2021/06/27 09:08:23;;;;;;;;;;;24.20;99.90;;;;;;5093918;28;19998;-57
2021/06/27 09:10:49;;;;;;;;;;;24.20;99.90;;;;;;5088903;28;20013;-57
2021/06/27 09:13:14;;;;;;;;;;;24.40;99.90;;;;;;5087813;28;20075;-57
2021/06/27 09:15:43;;;;;;;;;;;24.30;99.90;;;;;;5080096;28;20111;-57
2021/06/27 09:18:14;;;;;;;;;;;24.30;99.90;;;;;;5069226;28;20406;-57
2021/06/27 09:20:44;;;;;;;;;;;24.20;99.90;;;;;;5075032;28;19985;-57
2021/06/27 09:23:10;;;;;;;;;;;24.50;99.90;;;;;;5089022;28;20046;-57
2021/06/27 09:25:36;;;;;;;;;;;24.40;99.90;;;;;;5069589;28;19989;-58
2021/06/27 09:28:03;;;;;;;;;;;24.30;99.90;;;;;;5068792;28;20025;-59
2021/06/27 09:30:29;;;;;;;;;;;24.30;99.90;;;;;;5068932;28;20001;-58
2021/06/27 09:32:56;;;;;;;;;;;24.30;99.90;;;;;;5068559;28;19985;-58
2021/06/27 09:35:40;;;;;;;;;;;24.40;99.90;;;;;;5068731;28;20513;-59
2021/06/27 09:38:39;;;;;;;;;;;24.50;99.90;;;;;;5068906;28;19989;-59
2021/06/27 09:41:07;;;;;;;;;;;24.60;99.90;;;;;;5067001;28;19997;-59
2021/06/27 09:43:33;;;;;;;;;;;24.70;99.90;;;;;;5065532;28;19982;-58
2021/06/27 09:46:00;;;;;;;;;;;24.80;99.90;;;;;;5072813;28;20032;-58
2021/06/27 09:48:26;;;;;;;;;;;24.70;99.90;;;;;;5066296;28;19997;-59
2021/06/27 09:50:52;;;;;;;;;;;24.70;99.90;;;;;;5065457;28;20067;-58
2021/06/27 09:53:35;;;;;;;;;;;24.70;99.90;;;;;;5084087;28;20087;-58
2021/06/27 09:56:02;;;;;;;;;;;24.90;99.90;;;;;;5086908;28;20183;-58
2021/06/27 09:58:29;;;;;;;;;;;24.80;99.90;;;;;;5086040;28;19996;-58
2021/06/27 10:00:57;;;;;;;;;;;25.00;99.90;;;;;;5085704;28;20079;-59
2021/06/27 10:03:22;;;;;;;;;;;25.00;99.90;;;;;;5066845;28;19989;-59
2021/06/27 10:05:49;;;;;;;;;;;25.00;99.90;;;;;;5067148;28;20545;-59
2021/06/27 10:08:27;;;;;;;;;;;24.80;99.90;;;;;;5073398;28;20471;-58
2021/06/27 10:11:22;;;;;;;;;;;24.90;99.90;;;;;;5086257;28;20015;-58
2021/06/27 10:13:50;;;;;;;;;;;25.00;99.90;;;;;;5081515;28;20027;-58
2021/06/27 10:16:23;;;;;;;;;;;25.00;99.90;;;;;;5087238;28;19988;-58
2021/06/27 10:18:50;;;;;;;;;;;25.10;99.90;;;;;;5086531;28;19988;-58
2021/06/27 10:21:17;;;;;;;;;;;25.20;99.90;;;;;;5084509;28;20011;-58
2021/06/27 10:23:45;;;;;;;;;;;25.30;99.90;;;;;;5077762;28;19989;-58
2021/06/27 10:26:13;;;;;;;;;;;25.40;99.90;;;;;;5070496;28;20380;-59
2021/06/27 10:28:38;;;;;;;;;;;25.50;99.90;;;;;;5069416;28;20514;-59
2021/06/27 10:31:04;;;;;;;;;;;25.60;99.90;;;;;;5066113;28;20024;-59
2021/06/27 10:33:31;;;;;;;;;;;25.70;99.90;;;;;;5064926;28;19985;-58
2021/06/27 10:35:57;;;;;;;;;;;25.90;99.90;;;;;;5066415;28;19985;-59
2021/06/27 10:38:26;;;;;;;;;;;25.80;99.90;;;;;;5065788;28;20451;-59
2021/06/27 10:40:52;;;;;;;;;;;25.70;99.90;;;;;;5065525;28;20012;-58
2021/06/27 10:43:19;;;;;;;;;;;25.70;99.90;;;;;;5066700;28;20026;-59
2021/06/27 10:45:47;;;;;;;;;;;25.80;99.90;;;;;;5065926;28;20035;-59
2021/06/27 10:48:31;;;;;;;;;;;25.90;99.90;;;;;;5084812;28;20001;-59
2021/06/27 10:50:57;;;;;;;;;;;26.10;99.90;;;;;;5086215;28;20000;-59
2021/06/27 10:53:23;;;;;;;;;;;26.20;99.90;;;;;;5085667;28;20030;-59
2021/06/27 10:55:49;;;;;;;;;;;26.50;99.90;;;;;;5076592;28;20381;-59
2021/06/27 10:58:15;;;;;;;;;;;26.40;99.90;;;;;;5085528;28;20063;-59
2021/06/27 11:00:56;;;;;;;;;;;26.30;99.90;;;;;;5067568;28;19993;-60
2021/06/27 11:03:29;;;;;;;;;;;26.40;99.90;;;;;;5065583;28;19992;-59
2021/06/27 11:05:59;;;;;;;;;;;26.30;99.90;;;;;;5066417;28;19985;-59
2021/06/27 11:08:43;;;;;;;;;;;26.20;99.90;;;;;;5070511;28;20532;-59
2021/06/27 11:11:09;;;;;;;;;;;26.20;99.90;;;;;;5070465;28;20504;-59
2021/06/27 11:13:35;;;;;;;;;;;26.40;99.90;;;;;;5081147;28;20075;-59
2021/06/27 11:16:02;;;;;;;;;;;26.50;99.90;;;;;;5074212;28;20008;-59
2021/06/27 11:18:31;;;;;;;;;;;26.70;99.90;;;;;;5078091;28;19988;-59
2021/06/27 11:20:57;;;;;;;;;;;26.80;99.90;;;;;;5080980;28;19985;-60
2021/06/27 11:23:42;;;;;;;;;;;26.60;99.90;;;;;;5070907;28;19993;-59
2021/06/27 11:26:07;;;;;;;;;;;26.60;99.90;;;;;;5077145;28;20474;-59
2021/06/27 11:28:33;;;;;;;;;;;26.90;99.90;;;;;;5080753;28;20003;-60
2021/06/27 11:31:18;;;;;;;;;;;26.70;99.90;;;;;;5072447;28;20013;-60
2021/06/27 11:33:43;;;;;;;;;;;26.90;99.90;;;;;;5072849;28;19989;-61
2021/06/27 11:36:25;;;;;;;;;;;26.90;99.90;;;;;;5072493;28;19995;-61
2021/06/27 11:38:50;;;;;;;;;;;26.70;99.90;;;;;;5078378;28;20441;-59
2021/06/27 11:41:19;;;;;;;;;;;26.90;99.90;;;;;;5073537;28;19989;-60
2021/06/27 11:44:03;;;;;;;;;;;27.20;99.90;;;;;;5079270;28;19989;-59
2021/06/27 11:46:30;;;;;;;;;;;27.30;99.90;;;;;;5086232;28;19992;-60
2021/06/27 11:49:00;;;;;;;;;;;27.20;99.90;;;;;;5089759;28;20015;-60
2021/06/27 11:51:32;;;;;;;;;;;27.10;99.90;;;;;;5083756;28;20100;-59
2021/06/27 11:53:58;;;;;;;;;;;27.10;99.90;;;;;;5069670;28;20634;-59
2021/06/27 11:56:24;;;;;;;;;;;27.10;99.90;;;;;;5073537;28;20000;-60
2021/06/27 11:59:07;;;;;;;;;;;27.20;99.90;;;;;;5083248;28;19981;-60
2021/06/27 12:01:32;;;;;;;;;;;27.20;99.90;;;;;;5073321;28;19985;-59
2021/06/27 12:03:59;;;;;;;;;;;27.40;99.90;;;;;;5087182;28;20553;-59
2021/06/27 12:06:33;;;;;;;;;;;27.60;99.90;;;;;;5089638;28;20038;-60
2021/06/27 12:08:58;;;;;;;;;;;27.80;99.90;;;;;;5074690;28;20485;-59
2021/06/27 12:11:24;;;;;;;;;;;27.80;99.90;;;;;;5068906;28;20008;-60
2021/06/27 12:13:54;;;;;;;;;;;27.90;99.90;;;;;;5071308;28;20004;-61
2021/06/27 12:16:20;;;;;;;;;;;27.50;99.90;;;;;;5069358;28;19993;-59
2021/06/27 12:18:46;;;;;;;;;;;27.30;99.90;;;;;;5066560;28;20031;-60
2021/06/27 12:21:13;;;;;;;;;;;27.20;99.90;;;;;;5071117;28;20084;-59
2021/06/27 12:23:40;;;;;;;;;;;27.10;99.90;;;;;;5066974;28;20455;-60
2021/06/27 12:26:06;;;;;;;;;;;27.00;99.90;;;;;;5067339;28;20030;-59
2021/06/27 12:28:36;;;;;;;;;;;26.90;99.90;;;;;;5066516;28;20447;-59
2021/06/27 12:31:13;;;;;;;;;;;26.90;99.90;;;;;;5068217;28;20059;-59
2021/06/27 12:33:41;;;;;;;;;;;27.10;99.90;;;;;;5076390;28;20003;-62
2021/06/27 12:36:08;;;;;;;;;;;27.00;99.90;;;;;;5086142;28;19989;-61
2021/06/27 12:38:34;;;;;;;;;;;27.00;99.90;;;;;;5074892;28;20568;-61
2021/06/27 12:41:01;;;;;;;;;;;26.90;99.90;;;;;;5082984;28;19989;-60
2021/06/27 12:43:29;;;;;;;;;;;26.90;99.90;;;;;;5082498;28;20091;-60
2021/06/27 12:46:08;;;;;;;;;;;26.90;99.90;;;;;;5093270;28;20367;-61
2021/06/27 12:48:34;;;;;;;;;;;27.00;99.90;;;;;;5071352;28;20001;-61
2021/06/27 12:50:59;;;;;;;;;;;27.20;99.90;;;;;;5074304;28;20112;-61
2021/06/27 12:53:25;;;;;;;;;;;27.40;99.90;;;;;;5083756;28;20020;-59
2021/06/27 12:55:54;;;;;;;;;;;27.50;99.90;;;;;;5083294;28;19999;-59
2021/06/27 12:58:20;;;;;;;;;;;27.40;99.90;;;;;;5082482;28;20043;-60
2021/06/27 13:00:45;;;;;;;;;;;27.50;99.90;;;;;;5066783;28;19985;-59
2021/06/27 13:03:15;;;;;;;;;;;27.80;99.90;;;;;;5066853;28;20076;-59
2021/06/27 13:05:40;;;;;;;;;;;28.10;99.90;;;;;;5066536;28;19992;-60
2021/06/27 13:08:06;;;;;;;;;;;28.40;99.90;;;;;;5066862;28;19981;-61
2021/06/27 13:10:31;;;;;;;;;;;28.60;99.90;;;;;;5067293;28;20593;-60
2021/06/27 13:13:20;;;;;;;;;;;28.70;99.90;;;;;;5084979;28;19991;-61
2021/06/27 13:15:46;;;;;;;;;;;28.80;99.90;;;;;;5074141;28;20517;-60
2021/06/27 13:18:13;;;;;;;;;;;28.90;99.90;;;;;;5066410;28;19989;-61
2021/06/27 13:20:41;;;;;;;;;;;29.00;99.90;;;;;;5073748;28;19989;-59
2021/06/27 13:23:07;;;;;;;;;;;29.20;99.90;;;;;;5080585;28;19989;-60
2021/06/27 13:25:49;;;;;;;;;;;29.40;99.90;;;;;;5082145;28;19989;-61
2021/06/27 13:28:15;;;;;;;;;;;29.50;99.90;;;;;;5071718;28;19993;-60
2021/06/27 13:30:55;;;;;;;;;;;29.40;99.90;;;;;;5067916;28;20114;-64
2021/06/27 13:33:22;;;;;;;;;;;29.40;99.90;;;;;;5076130;28;20369;-63
2021/06/27 13:35:49;;;;;;;;;;;29.10;99.90;;;;;;5086207;28;20350;-61
2021/06/27 13:38:16;;;;;;;;;;;29.00;99.90;;;;;;5085271;28;19988;-61
2021/06/27 13:40:49;;;;;;;;;;;29.20;99.90;;;;;;5069002;28;20436;-61
2021/06/27 13:43:15;;;;;;;;;;;29.40;99.90;;;;;;5083072;28;20405;-62
2021/06/27 13:45:40;;;;;;;;;;;29.40;99.90;;;;;;5079299;28;19989;-63
2021/06/27 13:48:06;;;;;;;;;;;29.50;99.90;;;;;;5076745;28;20002;-62
2021/06/27 13:50:32;;;;;;;;;;;29.60;99.90;;;;;;5077396;28;20031;-61
2021/06/27 13:52:59;;;;;;;;;;;29.80;99.90;;;;;;5076657;28;20027;-62
2021/06/27 13:55:25;;;;;;;;;;;30.00;99.90;;;;;;5076363;28;19996;-62
2021/06/27 13:57:51;;;;;;;;;;;29.80;99.90;;;;;;5065424;28;19989;-63
2021/06/27 14:00:18;;;;;;;;;;;30.00;99.90;;;;;;5070117;28;20054;-62
2021/06/27 14:02:44;;;;;;;;;;;29.80;99.90;;;;;;5078482;28;19993;-62
2021/06/27 14:05:11;;;;;;;;;;;29.80;99.90;;;;;;5086050;28;20153;-62
2021/06/27 14:07:37;;;;;;;;;;;29.50;99.90;;;;;;5067698;28;19989;-63
2021/06/27 14:10:04;;;;;;;;;;;29.20;99.90;;;;;;5081547;28;19988;-62
2021/06/27 14:12:30;;;;;;;;;;;29.20;99.90;;;;;;5072169;28;20522;-61
2021/06/27 14:14:58;;;;;;;;;;;28.90;99.90;;;;;;5077458;28;20489;-61
2021/06/27 14:17:24;;;;;;;;;;;28.50;99.90;;;;;;5064896;28;20454;-64
2021/06/27 14:19:50;;;;;;;;;;;28.30;99.90;;;;;;5083890;28;19996;-62
2021/06/27 14:22:16;;;;;;;;;;;28.20;99.90;;;;;;5086403;28;20395;-61
2021/06/27 14:24:41;;;;;;;;;;;28.10;99.90;;;;;;5084632;28;19985;-60